Time;durP1;ratioP1;P1;durP2;ratioP2;P2;SDS_P1;SDS_P2;PMS_P1;PMS_P2;Temp;Humidity;BMP_temperature;BMP_pressure;BME280_temperature;BME280_humidity;BME280_pressure;Samples;Min_cycle;Max_cycle;Signal;HPM_P1;HPM_P2
2022/03/19 04:01:40;;;;;;;5.85;5.25;;;18.30;50.00;;;;;;5330661;23;46245;-57
2022/03/19 04:04:06;;;;;;;6.57;5.78;;;18.30;50.00;;;;;;4937979;28;46836;-58
2022/03/19 04:06:31;;;;;;;6.75;5.85;;;18.30;50.00;;;;;;4956492;28;46486;-58
2022/03/19 04:08:57;;;;;;;7.05;6.05;;;18.30;50.00;;;;;;4939733;28;45488;-59
2022/03/19 04:11:22;;;;;;;6.45;5.47;;;18.30;50.00;;;;;;4991153;23;45351;-70
2022/03/19 04:13:48;;;;;;;7.38;5.85;;;18.30;50.00;;;;;;4965692;28;45407;-70
2022/03/19 04:16:14;;;;;;;7.28;5.47;;;18.30;50.00;;;;;;4957922;28;45451;-70
2022/03/19 04:18:41;;;;;;;6.85;5.47;;;18.30;50.00;;;;;;4962594;28;45489;-70
2022/03/19 04:21:06;;;;;;;8.70;6.10;;;18.20;50.00;;;;;;4968582;28;45271;-70
2022/03/19 04:23:33;;;;;;;6.60;5.75;;;18.20;50.00;;;;;;4954912;28;45618;-74
2022/03/19 04:25:58;;;;;;;6.53;5.75;;;18.20;50.00;;;;;;4963622;28;46045;-74
2022/03/19 04:28:24;;;;;;;6.35;5.70;;;18.20;50.00;;;;;;4961626;28;45103;-74
2022/03/19 04:30:49;;;;;;;6.70;5.97;;;18.20;50.70;;;;;;4960190;28;45713;-74
2022/03/19 04:33:19;;;;;;;6.38;5.45;;;18.20;50.00;;;;;;4967132;28;45653;-74
2022/03/19 04:38:28;;;;;;;6.45;5.47;;;18.20;50.00;;;;;;4968587;28;45521;-74
2022/03/19 04:40:54;;;;;;;7.43;5.97;;;18.20;50.00;;;;;;4967290;28;46446;-73
2022/03/19 04:43:20;;;;;;;6.10;5.50;;;18.20;50.10;;;;;;4951809;28;45351;-74
2022/03/19 04:45:46;;;;;;;6.30;5.50;;;18.20;50.00;;;;;;4964499;28;45216;-74
2022/03/19 04:48:11;;;;;;;6.78;5.50;;;18.20;50.10;;;;;;4962186;28;45600;-73
2022/03/19 04:50:41;;;;;;;5.85;5.22;;;18.20;50.10;;;;;;4938025;28;45507;-74
2022/03/19 04:53:07;;;;;;;6.90;5.47;;;18.10;50.00;;;;;;4939144;28;45643;-74
2022/03/19 04:55:34;;;;;;;6.55;5.72;;;18.10;50.00;;;;;;4964841;28;46952;-73
2022/03/19 04:57:59;;;;;;;7.32;6.00;;;18.10;50.00;;;;;;4950781;28;45635;-74
2022/03/19 05:00:25;;;;;;;6.75;5.93;;;18.10;50.10;;;;;;4963192;28;45085;-74
2022/03/19 05:02:51;;;;;;;6.35;5.68;;;18.10;50.00;;;;;;4948697;28;45190;-74
2022/03/19 05:05:16;;;;;;;6.75;5.65;;;18.10;50.00;;;;;;4966080;28;45472;-74
2022/03/19 05:07:42;;;;;;;6.72;5.68;;;18.10;50.10;;;;;;4948841;28;45599;-74
2022/03/19 05:12:53;;;;;;;7.13;5.85;;;18.10;50.10;;;;;;4934610;28;45335;-74
2022/03/19 05:15:18;;;;;;;7.70;6.15;;;18.10;50.00;;;;;;4900334;28;47293;-73
2022/03/19 05:17:44;;;;;;;6.82;5.50;;;18.00;50.00;;;;;;4946237;28;45334;-74
2022/03/19 05:20:12;;;;;;;7.20;5.85;;;18.00;50.00;;;;;;4953322;28;45876;-74
2022/03/19 05:22:38;;;;;;;7.45;6.18;;;18.00;50.00;;;;;;4952767;28;45734;-73
2022/03/19 05:25:05;;;;;;;6.47;5.60;;;18.00;50.00;;;;;;4951332;28;46023;-73
2022/03/19 05:27:32;;;;;;;6.00;5.38;;;18.00;50.00;;;;;;4949412;28;45375;-74
2022/03/19 05:29:58;;;;;;;5.65;4.90;;;18.00;50.10;;;;;;4951165;28;45675;-74
2022/03/19 05:32:24;;;;;;;7.03;5.70;;;18.00;50.10;;;;;;4949192;28;45319;-74
2022/03/19 05:34:50;;;;;;;6.95;5.78;;;18.00;50.10;;;;;;4926669;28;47072;-74
2022/03/19 05:37:16;;;;;;;6.25;5.38;;;17.90;50.00;;;;;;4918026;28;45330;-74
2022/03/19 05:39:41;;;;;;;5.97;5.38;;;18.00;50.10;;;;;;4936645;28;45767;-74
2022/03/19 05:42:07;;;;;;;6.55;5.60;;;18.00;50.10;;;;;;4935476;28;45640;-74
2022/03/19 05:44:33;;;;;;;7.18;6.00;;;17.90;50.10;;;;;;4965816;28;45704;-73
2022/03/19 05:46:59;;;;;;;6.90;6.05;;;17.90;50.10;;;;;;4935404;28;45667;-73
2022/03/19 05:49:28;;;;;;;6.53;5.70;;;17.90;50.00;;;;;;4950708;28;45771;-73
2022/03/19 05:51:54;;;;;;;5.85;5.22;;;17.90;50.00;;;;;;4947452;28;45641;-73
2022/03/19 05:54:20;;;;;;;7.25;5.80;;;17.90;50.00;;;;;;4953389;28;46691;-73
2022/03/19 05:56:45;;;;;;;6.50;5.85;;;17.90;50.00;;;;;;4951719;28;45101;-73
2022/03/19 05:59:11;;;;;;;6.97;6.00;;;17.90;50.00;;;;;;4933423;28;45351;-74
2022/03/19 06:01:37;;;;;;;6.82;5.53;;;17.90;49.90;;;;;;4949505;28;45639;-73
2022/03/19 06:04:03;;;;;;;7.20;5.97;;;18.00;49.90;;;;;;4919213;28;47391;-73
2022/03/19 06:06:28;;;;;;;6.22;5.32;;;17.90;50.50;;;;;;4931465;28;45293;-73
2022/03/19 06:08:54;;;;;;;7.38;5.72;;;18.00;49.80;;;;;;4959565;28;45386;-73
2022/03/19 06:11:20;;;;;;;6.43;5.70;;;18.00;49.90;;;;;;4928424;28;45564;-73
2022/03/19 06:13:45;;;;;;;6.07;5.45;;;18.00;49.80;;;;;;4945048;28;46628;-73
2022/03/19 06:16:11;;;;;;;6.20;5.18;;;18.00;49.80;;;;;;4923200;28;45624;-73
2022/03/19 06:18:37;;;;;;;5.97;5.22;;;17.90;49.80;;;;;;4934619;28;45640;-73
2022/03/19 06:21:03;;;;;;;6.40;5.70;;;17.90;49.90;;;;;;4949069;28;45140;-73
2022/03/19 06:23:28;;;;;;;8.02;5.82;;;17.90;49.90;;;;;;4948897;28;45337;-74
2022/03/19 06:25:54;;;;;;;6.57;5.50;;;17.90;50.00;;;;;;4946485;28;46401;-75
2022/03/19 06:28:19;;;;;;;7.78;6.60;;;17.90;49.90;;;;;;4951997;28;45143;-73
2022/03/19 06:30:45;;;;;;;7.03;6.05;;;17.90;49.90;;;;;;4947783;28;46897;-73
2022/03/19 06:33:13;;;;;;;7.32;5.80;;;17.90;49.90;;;;;;4949099;28;45566;-73
2022/03/19 06:38:26;;;;;;;6.82;5.63;;;17.90;49.90;;;;;;4937275;28;45951;-73
2022/03/19 06:40:51;;;;;;;7.88;6.03;;;17.90;49.90;;;;;;4949155;28;45326;-73
2022/03/19 06:43:17;;;;;;;6.50;5.72;;;17.80;49.90;;;;;;4921536;28;46637;-73
2022/03/19 06:45:42;;;;;;;6.03;5.43;;;17.80;49.80;;;;;;4934394;28;45825;-77
2022/03/19 06:48:08;;;;;;;6.18;5.35;;;17.80;49.80;;;;;;4933952;28;45219;-77
2022/03/19 06:50:34;;;;;;;6.65;5.78;;;17.80;49.80;;;;;;4944705;28;45262;-77
2022/03/19 06:53:01;;;;;;;5.85;5.20;;;17.90;49.80;;;;;;4957963;28;44858;-77
2022/03/19 06:55:26;;;;;;;6.63;5.80;;;17.90;49.80;;;;;;4959141;28;45104;-77
2022/03/19 06:57:53;;;;;;;6.95;6.07;;;17.80;49.70;;;;;;4962219;28;45141;-76
2022/03/19 07:00:18;;;;;;;7.45;6.30;;;17.80;49.70;;;;;;4961642;28;45642;-77
2022/03/19 07:02:52;;;;;;;5.55;4.95;;;17.80;49.70;;;;;;4961205;28;45531;-77
2022/03/19 07:05:24;;;;;;;;;;;17.90;49.80;;;;;;4928688;28;45262;-77
2022/03/19 07:07:50;;;;;;;5.97;5.38;;;17.80;49.90;;;;;;4946899;28;45019;-77
2022/03/19 07:10:18;;;;;;;6.95;5.82;;;17.80;49.80;;;;;;4961164;28;45425;-77
2022/03/19 07:12:54;;;;;;;6.20;5.40;;;17.80;49.70;;;;;;4962442;28;47577;-77
2022/03/19 07:15:21;;;;;;;6.00;5.15;;;17.80;49.70;;;;;;4962582;28;44951;-76
2022/03/19 07:17:48;;;;;;;6.63;5.93;;;17.80;49.70;;;;;;4962995;28;45606;-77
2022/03/19 07:20:14;;;;;;;5.85;5.13;;;17.80;49.80;;;;;;4960662;28;45571;-77
2022/03/19 07:22:50;;;;;;;6.32;5.50;;;17.80;49.80;;;;;;4945697;28;46990;-77
2022/03/19 07:25:15;;;;;;;7.13;5.68;;;17.80;49.80;;;;;;4960991;28;45036;-77
2022/03/19 07:27:41;;;;;;;6.70;5.93;;;17.80;50.40;;;;;;4961273;28;45248;-77
2022/03/19 07:30:07;;;;;;;6.72;5.78;;;17.80;49.80;;;;;;4943479;28;44911;-77
2022/03/19 07:32:33;;;;;;;6.32;5.55;;;17.80;49.80;;;;;;4942002;28;46429;-77
2022/03/19 07:35:00;;;;;;;6.13;5.40;;;17.80;49.90;;;;;;4944979;28;44751;-77
2022/03/19 07:37:26;;;;;;;7.03;5.88;;;17.80;49.80;;;;;;4958542;28;45358;-77
2022/03/19 07:39:52;;;;;;;6.57;5.72;;;17.80;49.80;;;;;;4943313;28;45857;-77
2022/03/19 07:42:17;;;;;;;6.82;5.95;;;17.80;49.70;;;;;;4939836;28;48191;-77
2022/03/19 07:44:43;;;;;;;6.32;5.45;;;17.80;49.70;;;;;;4959817;28;44690;-77
2022/03/19 07:47:09;;;;;;;6.57;5.88;;;17.80;49.70;;;;;;4961772;28;45280;-77
2022/03/19 07:49:34;;;;;;;6.40;5.65;;;17.80;49.70;;;;;;4964590;28;45234;-77
2022/03/19 07:52:05;;;;;;;7.00;5.97;;;17.80;49.70;;;;;;4944978;28;48270;-77
2022/03/19 07:54:31;;;;;;;7.22;6.05;;;17.80;49.60;;;;;;4960476;28;45652;-78
2022/03/19 07:56:57;;;;;;;6.38;5.68;;;17.90;49.70;;;;;;4964941;28;45690;-78
2022/03/19 07:59:22;;;;;;;7.18;6.35;;;17.80;49.60;;;;;;4932025;28;44818;-78
2022/03/19 08:01:49;;;;;;;7.43;6.35;;;17.90;49.60;;;;;;4952518;28;45492;-77
2022/03/19 08:04:15;;;;;;;6.50;5.60;;;17.90;49.60;;;;;;4968525;28;45213;-77
2022/03/19 08:06:41;;;;;;;5.90;5.30;;;17.90;49.60;;;;;;4951300;28;45557;-78
2022/03/19 08:09:09;;;;;;;5.90;5.30;;;17.90;49.60;;;;;;4968963;28;45579;-77
2022/03/19 08:11:35;;;;;;;6.57;5.60;;;17.90;49.50;;;;;;4951093;28;48280;-77
2022/03/19 08:14:01;;;;;;;7.05;6.07;;;17.90;49.50;;;;;;4963218;28;45742;-77
2022/03/19 08:16:27;;;;;;;6.20;5.32;;;17.90;49.50;;;;;;4944523;28;45686;-76
2022/03/19 08:18:52;;;;;;;9.13;6.05;;;17.90;49.50;;;;;;4939385;28;45851;-76
2022/03/19 08:21:20;;;;;;;7.88;6.22;;;17.90;49.40;;;;;;4943156;28;45744;-76
2022/03/19 08:23:49;;;;;;;6.70;5.95;;;18.00;49.30;;;;;;4962905;28;45177;-76
2022/03/19 08:26:15;;;;;;;7.25;6.10;;;18.00;49.30;;;;;;4943354;28;45210;-76
2022/03/19 08:28:40;;;;;;;7.75;5.72;;;18.10;49.20;;;;;;4929708;28;45291;-76
2022/03/19 08:31:06;;;;;;;6.57;5.82;;;18.10;49.20;;;;;;4962671;28;46564;-76
2022/03/19 08:33:31;;;;;;;6.43;5.78;;;18.10;49.20;;;;;;4948075;28;45628;-77
2022/03/19 08:35:57;;;;;;;7.20;5.80;;;18.10;49.10;;;;;;4931988;28;45631;-76
2022/03/19 08:41:07;;;;;;;7.28;6.07;;;18.10;49.10;;;;;;4951096;28;46981;-76
2022/03/19 08:43:32;;;;;;;7.88;5.50;;;18.20;49.10;;;;;;4910365;28;45408;-75
2022/03/19 08:45:59;;;;;;;7.95;6.07;;;18.20;49.10;;;;;;4940821;28;45275;-77
2022/03/19 08:48:25;;;;;;;7.70;6.07;;;18.20;49.10;;;;;;4960645;28;44989;-77
2022/03/19 08:50:51;;;;;;;7.45;6.07;;;18.20;49.10;;;;;;4941209;28;46838;-77
2022/03/19 08:53:17;;;;;;;8.38;6.40;;;18.20;49.10;;;;;;4964850;28;45384;-77
2022/03/19 08:55:43;;;;;;;7.30;6.13;;;18.30;49.00;;;;;;4967341;28;45338;-77
2022/03/19 08:58:09;;;;;;;8.20;6.63;;;18.30;49.10;;;;;;4966775;28;45322;-77
2022/03/19 09:00:34;;;;;;;7.13;5.93;;;18.30;49.00;;;;;;4944866;28;46827;-77
2022/03/19 09:03:00;;;;;;;8.15;6.00;;;18.30;49.00;;;;;;4962060;28;45691;-76
2022/03/19 09:05:28;;;;;;;6.57;5.63;;;18.30;49.00;;;;;;4928827;28;45297;-76
2022/03/19 09:07:54;;;;;;;7.82;5.93;;;18.30;49.00;;;;;;4940270;28;45295;-76
2022/03/19 09:10:20;;;;;;;7.38;5.82;;;18.40;49.00;;;;;;4961385;28;45576;-76
2022/03/19 09:12:46;;;;;;;6.72;5.38;;;18.30;49.00;;;;;;4949317;28;45605;-77
2022/03/19 09:15:12;;;;;;;8.55;6.53;;;18.40;49.00;;;;;;4965895;28;45342;-78
2022/03/19 09:17:38;;;;;;;9.02;6.80;;;18.40;49.00;;;;;;4945406;28;45585;-76
2022/03/19 09:20:04;;;;;;;7.95;6.55;;;18.40;49.00;;;;;;4960668;28;45584;-76
2022/03/19 09:22:30;;;;;;;9.13;6.50;;;18.40;49.10;;;;;;4946458;28;45670;-76
2022/03/19 09:24:56;;;;;;;8.45;6.63;;;18.40;49.10;;;;;;4962127;28;45353;-77
2022/03/19 09:27:22;;;;;;;7.25;5.90;;;18.40;49.00;;;;;;4960920;28;45402;-77
2022/03/19 09:29:47;;;;;;;8.85;7.05;;;18.40;49.00;;;;;;4961205;28;45826;-77
2022/03/19 09:32:13;;;;;;;7.22;6.28;;;18.40;49.10;;;;;;4948961;28;44890;-77
2022/03/19 09:34:39;;;;;;;9.77;7.25;;;18.40;49.10;;;;;;4949936;28;45184;-77
2022/03/19 09:37:05;;;;;;;8.63;6.53;;;18.40;49.00;;;;;;4949187;28;45166;-77
2022/03/19 09:39:30;;;;;;;8.50;6.72;;;18.40;49.00;;;;;;4945207;28;45070;-77
2022/03/19 09:41:56;;;;;;;8.82;6.85;;;18.50;49.00;;;;;;4960589;28;45314;-77
2022/03/19 09:44:25;;;;;;;8.50;6.80;;;18.50;49.00;;;;;;4963697;28;45183;-76
2022/03/19 09:46:52;;;;;;;7.05;5.70;;;18.50;49.00;;;;;;4948399;28;45852;-76
2022/03/19 09:49:17;;;;;;;8.35;5.97;;;18.50;48.90;;;;;;4961269;28;45671;-77
2022/03/19 09:51:49;;;;;;;8.57;6.55;;;18.50;49.00;;;;;;4946702;28;45131;-77
2022/03/19 09:54:15;;;;;;;7.43;5.70;;;18.40;49.00;;;;;;4946489;28;45514;-76
2022/03/19 09:56:40;;;;;;;8.45;6.30;;;18.50;49.00;;;;;;4960973;28;46231;-77
2022/03/19 09:59:06;;;;;;;10.38;6.85;;;18.50;49.00;;;;;;4965970;28;47132;-77
2022/03/19 10:01:33;;;;;;;7.57;5.93;;;18.60;49.00;;;;;;4945965;28;45297;-76
2022/03/19 10:04:03;;;;;;;7.78;5.65;;;18.60;48.90;;;;;;4961583;28;45278;-77
2022/03/19 10:09:23;;;;;;;8.27;6.25;;;18.50;48.90;;;;;;4949247;28;44978;-77
2022/03/19 10:11:50;;;;;;;6.95;5.55;;;18.60;49.00;;;;;;4937324;28;45477;-77
2022/03/19 10:14:21;;;;;;;6.63;5.53;;;18.50;49.00;;;;;;4965806;28;45615;-78
2022/03/19 10:16:49;;;;;;;7.18;6.15;;;18.50;49.00;;;;;;4965496;28;45282;-77
2022/03/19 10:19:15;;;;;;;8.60;6.07;;;18.50;49.00;;;;;;4959897;28;47205;-78
2022/03/19 10:21:41;;;;;;;9.40;6.80;;;18.50;48.90;;;;;;4963394;28;45629;-77
2022/03/19 10:24:25;;;;;;;7.53;5.88;;;18.50;49.00;;;;;;4927234;28;45372;-77
2022/03/19 10:26:51;;;;;;;6.43;5.70;;;18.50;49.00;;;;;;4929987;28;45579;-78
2022/03/19 10:29:22;;;;;;;8.93;6.32;;;18.50;49.20;;;;;;4945134;28;46514;-78
2022/03/19 10:31:50;;;;;;;8.23;6.43;;;18.50;49.10;;;;;;4958646;28;45219;-77
2022/03/19 10:34:15;;;;;;;6.53;5.63;;;18.50;49.80;;;;;;4971410;28;44986;-77
2022/03/19 10:36:45;;;;;;;7.13;5.65;;;18.50;49.10;;;;;;4954623;28;45750;-77
2022/03/19 10:39:19;;;;;;;7.68;6.47;;;18.50;49.10;;;;;;4939647;28;46903;-77
2022/03/19 10:41:45;;;;;;;8.75;6.13;;;18.50;49.00;;;;;;4955100;28;45147;-78
2022/03/19 10:44:19;;;;;;;7.57;5.82;;;18.50;49.60;;;;;;4971956;28;44687;-77
2022/03/19 10:46:49;;;;;;;8.38;6.65;;;18.50;49.10;;;;;;4962928;28;45438;-78
2022/03/19 10:49:15;;;;;;;7.68;5.90;;;18.50;49.10;;;;;;4956120;28;45262;-76
2022/03/19 10:51:45;;;;;;;7.68;5.60;;;18.50;49.80;;;;;;4958326;28;44670;-77
2022/03/19 10:54:11;;;;;;;8.95;5.90;;;18.50;49.10;;;;;;4958994;28;45269;-77
2022/03/19 10:56:37;;;;;;;7.47;5.88;;;18.50;49.10;;;;;;4973886;28;45197;-77
2022/03/19 10:59:03;;;;;;;6.93;5.35;;;18.50;49.20;;;;;;4975367;28;47553;-75
2022/03/19 11:01:29;;;;;;;7.95;5.68;;;18.50;49.20;;;;;;4953301;28;45139;-75
2022/03/19 11:03:55;;;;;;;7.20;6.10;;;18.40;49.20;;;;;;4974427;28;45167;-75
2022/03/19 11:06:20;;;;;;;7.97;6.30;;;18.50;49.20;;;;;;4974593;28;45332;-75
2022/03/19 11:08:47;;;;;;;7.45;5.80;;;18.50;49.20;;;;;;4960392;28;47283;-75
2022/03/19 11:11:40;;;;;;;7.30;5.70;;;18.40;49.10;;;;;;4968003;28;45712;-75
2022/03/19 11:14:06;;;;;;;7.18;5.95;;;18.50;49.20;;;;;;4970954;28;44759;-75
2022/03/19 11:16:35;;;;;;;6.43;5.35;;;18.50;49.20;;;;;;4951423;28;45417;-75
2022/03/19 11:19:02;;;;;;;5.78;5.07;;;18.40;49.10;;;;;;4951942;28;47001;-75
2022/03/19 11:21:32;;;;;;;8.00;5.72;;;18.40;49.10;;;;;;4957914;28;44617;-75
2022/03/19 11:24:12;;;;;;;7.38;6.13;;;18.40;49.10;;;;;;4959763;28;45535;-75
2022/03/19 11:26:38;;;;;;;7.80;6.13;;;18.40;49.20;;;;;;4974491;28;45190;-76
2022/03/19 11:29:05;;;;;;;8.93;6.10;;;18.40;49.10;;;;;;4960362;28;47250;-75
2022/03/19 11:31:31;;;;;;;7.32;5.93;;;18.40;49.10;;;;;;4970711;28;45007;-74
2022/03/19 11:34:24;;;;;;;7.45;5.70;;;18.40;49.10;;;;;;4962631;28;45469;-75
2022/03/19 11:36:57;;;;;;;7.10;5.25;;;18.40;49.10;;;;;;4955332;28;45237;-76
2022/03/19 11:39:23;;;;;;;7.53;5.85;;;18.40;49.10;;;;;;4948884;28;48172;-76
2022/03/19 11:41:49;;;;;;;9.32;5.43;;;18.40;49.10;;;;;;4949084;28;45221;-75
2022/03/19 11:44:25;;;;;;;7.13;6.13;;;18.40;49.10;;;;;;4953386;28;44723;-76
2022/03/19 11:47:06;;;;;;;7.97;5.82;;;18.50;49.10;;;;;;4965699;28;45567;-76
2022/03/19 11:49:54;;;;;;;8.50;6.10;;;18.50;49.00;;;;;;4968629;28;45733;-75
2022/03/19 11:52:26;;;;;;;6.95;5.35;;;18.50;49.10;;;;;;4950805;28;45275;-75
2022/03/19 11:55:04;;;;;;;7.00;5.90;;;18.40;49.00;;;;;;4938398;28;45467;-75
2022/03/19 11:57:58;;;;;;;6.40;5.25;;;18.40;49.10;;;;;;4962517;28;45263;-76
2022/03/19 12:00:28;;;;;;;7.93;5.70;;;18.50;49.10;;;;;;4948348;28;47397;-70
2022/03/19 12:03:06;;;;;;;7.43;5.63;;;18.40;49.10;;;;;;4956881;28;45915;-70
2022/03/19 12:05:34;;;;;;;7.57;5.63;;;18.50;49.10;;;;;;4955350;28;45307;-71
2022/03/19 12:08:23;;;;;;;8.38;5.47;;;18.40;49.10;;;;;;4973598;28;45299;-71
2022/03/19 12:10:59;;;;;;;6.90;5.38;;;18.40;49.00;;;;;;4966565;28;45005;-70
2022/03/19 12:13:28;;;;;;;7.97;5.30;;;18.40;49.00;;;;;;4972153;28;45250;-70
2022/03/19 12:16:04;;;;;;;6.82;5.40;;;18.40;49.00;;;;;;4979102;28;44690;-77
2022/03/19 12:18:39;;;;;;;6.40;5.50;;;18.40;49.10;;;;;;4959057;28;45612;-77
2022/03/19 12:21:11;;;;;;;6.38;5.53;;;18.40;49.10;;;;;;4988381;28;45222;-78
2022/03/19 12:23:55;;;;;;;6.20;5.40;;;18.40;49.10;;;;;;4968053;28;45565;-77
2022/03/19 12:26:22;;;;;;;8.15;5.00;;;18.40;49.20;;;;;;4970013;28;45213;-77
2022/03/19 12:29:01;;;;;;;6.35;5.25;;;18.40;49.20;;;;;;4965433;28;45419;-77
2022/03/19 12:31:32;;;;;;;6.18;5.25;;;18.40;49.20;;;;;;4950633;28;45929;-76
2022/03/19 12:33:58;;;;;;;7.43;5.72;;;18.40;49.20;;;;;;4935247;28;45264;-76
2022/03/19 12:36:24;;;;;;;7.60;5.68;;;18.40;49.20;;;;;;4971143;28;45437;-77
2022/03/19 12:38:52;;;;;;;6.20;4.65;;;18.40;49.20;;;;;;4959412;28;45662;-77
2022/03/19 12:41:29;;;;;;;5.75;4.93;;;18.40;49.20;;;;;;4964824;28;45267;-77
2022/03/19 12:43:55;;;;;;;6.45;5.18;;;18.30;49.20;;;;;;4964511;28;45405;-77
2022/03/19 12:46:21;;;;;;;6.53;5.03;;;18.30;49.20;;;;;;4964499;28;44783;-76
2022/03/19 12:48:47;;;;;;;6.50;5.30;;;18.40;49.80;;;;;;4964805;28;45643;-77
2022/03/19 12:51:25;;;;;;;6.97;5.38;;;18.40;49.20;;;;;;4964766;28;45294;-76
2022/03/19 12:53:50;;;;;;;5.60;4.82;;;18.30;49.30;;;;;;4948358;28;45173;-76
2022/03/19 12:56:20;;;;;;;7.60;5.50;;;18.30;49.30;;;;;;4952490;28;45696;-76
2022/03/19 12:58:47;;;;;;;5.60;4.97;;;18.30;49.30;;;;;;4950557;28;45549;-77
2022/03/19 13:01:13;;;;;;;5.95;4.97;;;18.30;49.30;;;;;;4964513;28;45814;-77
2022/03/19 13:03:41;;;;;;;5.93;5.03;;;18.30;49.90;;;;;;4959526;28;45157;-75
2022/03/19 13:06:07;;;;;;;6.38;5.00;;;18.30;49.30;;;;;;4958464;28;45799;-77
2022/03/19 13:08:49;;;;;;;7.15;5.40;;;18.30;49.30;;;;;;4967006;28;45519;-77
2022/03/19 13:11:16;;;;;;;5.78;4.63;;;18.30;49.40;;;;;;4954482;28;45997;-77
2022/03/19 13:13:43;;;;;;;7.03;5.65;;;18.20;49.30;;;;;;4968590;28;45112;-77
2022/03/19 13:16:08;;;;;;;6.90;5.03;;;18.20;49.30;;;;;;4972709;28;45359;-76
2022/03/19 13:18:37;;;;;;;6.28;4.95;;;18.20;49.40;;;;;;4947911;28;45349;-76
2022/03/19 13:21:05;;;;;;;5.57;4.55;;;18.20;49.40;;;;;;4953205;28;47038;-76
2022/03/19 13:23:31;;;;;;;5.72;4.45;;;18.20;49.40;;;;;;4968510;28;45252;-76
2022/03/19 13:25:57;;;;;;;6.53;5.22;;;18.20;49.40;;;;;;4969678;28;45231;-76
2022/03/19 13:28:23;;;;;;;6.38;5.15;;;18.20;49.40;;;;;;4970726;28;45586;-77
2022/03/19 13:30:50;;;;;;;6.85;5.13;;;18.20;49.50;;;;;;4943299;28;46423;-78
2022/03/19 13:33:16;;;;;;;7.45;5.28;;;18.20;49.50;;;;;;4928189;28;45451;-77
2022/03/19 13:35:47;;;;;;;6.45;5.10;;;18.20;49.50;;;;;;4962859;28;45279;-77
2022/03/19 13:38:16;;;;;;;7.35;5.38;;;18.10;49.50;;;;;;4969497;28;45307;-77
2022/03/19 13:40:42;;;;;;;5.90;4.78;;;18.10;49.50;;;;;;4968916;28;45833;-77
2022/03/19 13:43:07;;;;;;;6.55;4.90;;;18.20;49.50;;;;;;4969357;28;45199;-76
2022/03/19 13:45:34;;;;;;;6.05;4.82;;;18.10;49.50;;;;;;4946695;28;44638;-76
2022/03/19 13:48:07;;;;;;;5.90;5.00;;;18.10;49.50;;;;;;4949604;28;45338;-77
2022/03/19 13:50:36;;;;;;;6.07;4.82;;;18.10;49.50;;;;;;4968039;28;45487;-77
2022/03/19 13:53:02;;;;;;;6.35;4.97;;;18.10;49.50;;;;;;4968421;28;45110;-76
2022/03/19 13:55:28;;;;;;;6.25;5.18;;;18.10;49.50;;;;;;4949072;28;45315;-76
2022/03/19 13:58:01;;;;;;;6.82;5.13;;;18.10;49.50;;;;;;4969843;28;45532;-77
2022/03/19 14:00:28;;;;;;;6.70;5.20;;;18.10;49.60;;;;;;4948702;28;45625;-77
2022/03/19 14:02:57;;;;;;;5.63;4.80;;;18.10;49.60;;;;;;4945219;28;45515;-74
2022/03/19 14:05:27;;;;;;;6.22;4.82;;;18.10;49.60;;;;;;4965054;28;45287;-72
2022/03/19 14:08:03;;;;;;;5.50;4.72;;;18.10;49.60;;;;;;4965581;28;45381;-73
2022/03/19 14:10:43;;;;;;;6.22;4.97;;;18.10;49.60;;;;;;4947153;28;45901;-73
2022/03/19 14:13:09;;;;;;;6.10;4.80;;;18.00;49.60;;;;;;4945729;28;45204;-74
2022/03/19 14:15:37;;;;;;;5.28;4.65;;;18.00;49.60;;;;;;4957973;28;45303;-73
2022/03/19 14:18:03;;;;;;;6.15;4.93;;;18.00;49.60;;;;;;4963296;28;45195;-73
2022/03/19 14:20:29;;;;;;;8.70;5.30;;;18.00;49.60;;;;;;4964033;28;44935;-74
2022/03/19 14:22:54;;;;;;;5.05;4.45;;;18.00;49.60;;;;;;4946689;28;45644;-73
2022/03/19 14:25:20;;;;;;;6.65;4.80;;;18.00;49.60;;;;;;4962351;28;44674;-74
2022/03/19 14:27:46;;;;;;;6.00;4.60;;;18.00;49.50;;;;;;4965092;28;45695;-74
2022/03/19 14:30:15;;;;;;;5.22;4.45;;;18.00;49.50;;;;;;4929230;28;46518;-74
2022/03/19 14:32:41;;;;;;;4.90;4.35;;;18.00;50.20;;;;;;4964644;28;44679;-74
2022/03/19 14:35:34;;;;;;;5.97;4.63;;;18.00;49.60;;;;;;4970655;28;45581;-71
2022/03/19 14:37:59;;;;;;;5.47;4.68;;;18.00;49.50;;;;;;4966032;28;45175;-71
2022/03/19 14:40:25;;;;;;;5.85;4.65;;;17.90;49.50;;;;;;4969407;28;46747;-70
2022/03/19 14:42:51;;;;;;;5.63;4.80;;;17.90;49.60;;;;;;4953804;28;45706;-70
2022/03/19 14:45:16;;;;;;;6.05;4.80;;;17.90;49.50;;;;;;4940646;28;45470;-70
2022/03/19 14:47:42;;;;;;;6.97;5.07;;;17.90;49.60;;;;;;4955872;28;45148;-70
2022/03/19 14:50:08;;;;;;;7.03;5.00;;;17.90;49.50;;;;;;4939098;28;47975;-70
2022/03/19 14:52:34;;;;;;;6.20;4.65;;;17.90;49.60;;;;;;4953729;28;45367;-70
2022/03/19 14:55:01;;;;;;;5.85;4.63;;;17.90;49.50;;;;;;4970947;28;45687;-70
2022/03/19 14:57:27;;;;;;;5.88;4.30;;;17.90;49.50;;;;;;4976716;28;45208;-70
2022/03/19 14:59:53;;;;;;;5.43;4.72;;;17.90;49.50;;;;;;4969717;28;45199;-70
2022/03/19 15:02:20;;;;;;;5.82;4.75;;;17.90;49.50;;;;;;4958599;28;45447;-70
2022/03/19 15:04:46;;;;;;;5.13;4.15;;;17.90;49.60;;;;;;4972642;28;44708;-70
2022/03/19 15:07:13;;;;;;;6.18;4.63;;;17.80;49.40;;;;;;4968319;28;45410;-70
2022/03/19 15:09:39;;;;;;;6.65;4.93;;;17.80;49.50;;;;;;4939422;28;47175;-70
2022/03/19 15:12:06;;;;;;;5.43;4.35;;;17.80;49.50;;;;;;4973894;28;45673;-70
2022/03/19 15:14:32;;;;;;;6.45;4.57;;;17.90;49.60;;;;;;4969360;28;45639;-70
2022/03/19 15:16:57;;;;;;;6.95;5.38;;;17.80;49.50;;;;;;4973704;28;45334;-70
2022/03/19 15:19:23;;;;;;;5.95;4.68;;;17.80;49.60;;;;;;4973688;28;45336;-71
2022/03/19 15:21:49;;;;;;;5.82;4.47;;;17.80;49.50;;;;;;4959406;28;45711;-69
2022/03/19 15:24:14;;;;;;;5.80;4.22;;;17.80;49.50;;;;;;4968967;28;45964;-69
2022/03/19 15:26:40;;;;;;;5.55;4.80;;;17.80;49.60;;;;;;4932699;28;45170;-69
2022/03/19 15:29:05;;;;;;;5.63;4.82;;;17.80;49.60;;;;;;4974898;28;47021;-69
2022/03/19 15:31:31;;;;;;;6.60;5.07;;;17.80;49.60;;;;;;4962837;28;45288;-69
2022/03/19 15:33:57;;;;;;;5.32;4.22;;;17.80;49.60;;;;;;4958050;28;45188;-70
2022/03/19 15:36:22;;;;;;;4.90;4.40;;;17.80;49.60;;;;;;4939384;28;45268;-70
2022/03/19 15:38:48;;;;;;;6.32;4.70;;;17.70;49.60;;;;;;4962236;28;47129;-71
2022/03/19 15:41:19;;;;;;;6.38;4.72;;;17.70;49.60;;;;;;4960954;28;45549;-70
2022/03/19 15:43:47;;;;;;;6.40;5.05;;;17.70;49.70;;;;;;4972226;28;45513;-71
2022/03/19 15:46:13;;;;;;;6.00;4.80;;;17.70;49.60;;;;;;4971760;28;45462;-70
2022/03/19 15:48:38;;;;;;;5.25;4.47;;;17.70;49.60;;;;;;4979650;28;45268;-70
2022/03/19 15:51:04;;;;;;;7.68;5.05;;;17.70;49.60;;;;;;4970531;28;45534;-69
2022/03/19 15:53:30;;;;;;;6.10;5.25;;;17.70;49.60;;;;;;4973657;28;44964;-70
2022/03/19 15:55:55;;;;;;;6.82;5.18;;;17.70;49.60;;;;;;4959643;28;44811;-70
2022/03/19 15:58:21;;;;;;;6.30;4.72;;;17.70;49.60;;;;;;4967458;28;45743;-70
2022/03/19 16:00:46;;;;;;;5.32;4.53;;;17.70;49.60;;;;;;4968406;28;45489;-70
2022/03/19 16:03:13;;;;;;;4.75;4.05;;;17.70;49.60;;;;;;4949309;28;45136;-70
2022/03/19 16:05:39;;;;;;;5.53;4.32;;;17.70;49.70;;;;;;4959327;28;45740;-70
2022/03/19 16:08:04;;;;;;;5.63;4.47;;;17.70;49.70;;;;;;4956070;28;46057;-70
2022/03/19 16:10:30;;;;;;;6.22;4.38;;;17.70;49.70;;;;;;4955788;28;45520;-70
2022/03/19 16:12:56;;;;;;;6.68;4.70;;;17.60;49.70;;;;;;4957186;28;45315;-70
2022/03/19 16:15:21;;;;;;;6.82;4.80;;;17.60;49.60;;;;;;4938089;28;45678;-72
2022/03/19 16:17:50;;;;;;;5.82;4.50;;;17.60;49.60;;;;;;4972818;28;45644;-70
2022/03/19 16:20:17;;;;;;;5.82;4.68;;;17.70;49.80;;;;;;4973419;28;45530;-70
2022/03/19 16:22:47;;;;;;;6.20;4.68;;;17.60;49.70;;;;;;4968880;28;45287;-70
2022/03/19 16:25:13;;;;;;;6.20;3.92;;;17.60;49.70;;;;;;4971623;28;44837;-70
2022/03/19 16:27:38;;;;;;;6.28;4.05;;;17.60;49.70;;;;;;4951976;28;45283;-70
2022/03/19 16:30:05;;;;;;;6.40;4.97;;;17.60;49.70;;;;;;4969484;28;45184;-70
2022/03/19 16:32:30;;;;;;;6.15;4.93;;;17.60;49.70;;;;;;4952484;28;44794;-70
2022/03/19 16:34:56;;;;;;;4.85;4.15;;;17.60;49.70;;;;;;4938785;28;45238;-69
2022/03/19 16:37:24;;;;;;;5.38;4.30;;;17.60;49.70;;;;;;4958181;28;45712;-70
2022/03/19 16:39:49;;;;;;;6.75;4.38;;;17.60;49.70;;;;;;4958412;28;45260;-70
2022/03/19 16:42:15;;;;;;;5.80;4.65;;;17.60;49.70;;;;;;4972129;28;45719;-70
2022/03/19 16:44:40;;;;;;;6.50;4.47;;;17.50;49.70;;;;;;4968108;28;45570;-70
2022/03/19 16:47:07;;;;;;;6.13;4.90;;;17.50;49.70;;;;;;4970941;28;45064;-70
2022/03/19 16:49:32;;;;;;;5.57;4.60;;;17.50;49.60;;;;;;4971138;28;45354;-70
2022/03/19 16:51:58;;;;;;;6.03;4.65;;;17.50;49.70;;;;;;4957935;28;45299;-70
2022/03/19 16:54:23;;;;;;;5.25;4.10;;;17.50;49.60;;;;;;4963399;28;45222;-70
2022/03/19 16:56:49;;;;;;;6.85;4.85;;;17.50;49.70;;;;;;4967929;28;45358;-70
2022/03/19 16:59:15;;;;;;;5.82;4.70;;;17.50;49.70;;;;;;4968608;28;45211;-71
2022/03/19 17:01:42;;;;;;;7.13;4.50;;;17.50;49.70;;;;;;4964177;28;45104;-70
2022/03/19 17:04:07;;;;;;;6.40;5.07;;;17.50;49.60;;;;;;4956369;28;45363;-70